Terminal Aerodrome Forecast
Issued by NWS

Home | Current Version | Previous Version | Text Only | Print | Product List | Glossary On
Versions: 1 2 3 4 5 6 7 8 9 10 11 12 13
274
FTUS45 KRIW 290530
TAFRKS
TAF
KRKS 290530Z 2906/3006 24008KT P6SM SCT100
     FM291600 24007KT P6SM SCT100 BKN200
     FM292100 VRB10G16KT P6SM VCTS SCT060CB BKN100
     FM300100 23006KT P6SM VCSH SCT060 BKN090=

USA.gov is the U.S. government's official web portal to all federal, state and local government web resources and services.